Raiatea — V7VA3 — position and weather

sailwx.info

Track history (hours):
 
Tides and Currents Weather Stations Pressure Air Temp Water Temp Dewpoint Dewpoint Depression Visibility Wind Speed Wind Dir Waves Ship Positions

Raiatea

Last reported at 2014-Jul-14 19:33 UTC. Time now 2014-Jul-26 05:08 UTC.
Position N 31°28' E 032°20'.
Warning: this ship's position is 11 days out of date.

Length 292 m; draft 16.7 m.

Type: Ship. MMSI: 538004070.

Date/timePositionNaut miles runAvg speedWind from/ knotsBaromVisibWave heightAir tempDewpointWater temp
2014-Jul-14 19:33N 31°28' E 032°20'103 3.4
2014-Jul-13 13:24N 32°46' E 031°00'34611.9
2014-Jul-12 08:23N 36°58' E 026°12'1012.1
2014-Jul-12 07:34N 37°07' E 026°06'1211.5
2014-Jul-12 06:33N 37°18' E 026°01'1211.6
2014-Jul-12 05:33N 37°28' E 025°55'1111.4
2014-Jul-12 04:33N 37°39' E 025°50'1211.7
2014-Jul-12 03:33N 37°50' E 025°44'1211.9
2014-Jul-12 02:33N 38°01' E 025°38'1212.0
2014-Jul-12 01:31N 38°12' E 025°32'1111.5
2014-Jul-12 00:33N 38°22' E 025°27'7910.9
2014-Jul-11 17:21N 39°39' E 025°47'911.2
2014-Jul-11 16:31N 39°48' E 025°51'1111.4
2014-Jul-11 15:33N 39°58' E 025°56'1110.8
2014-Jul-11 14:33N 40°02' E 026°10'38 2.3
2014-Jul-10 22:05N 40°28' E 026°46'0 0.0
2014-Jul-10 21:05N 40°28' E 026°46'0 0.0
2014-Jul-10 20:29N 40°28' E 026°46'0 0.1
2014-Jul-10 19:32N 40°27' E 026°46'0 0.1
2014-Jul-10 18:29N 40°28' E 026°46'0 0.1
2014-Jul-10 17:32N 40°28' E 026°46'3 3.0
2014-Jul-10 16:33N 40°28' E 026°50'302 8.6
2014-Jul-09 05:28N 44°43' E 030°30'1111.9
2014-Jul-09 04:33N 44°53' E 030°34'1211.8
2014-Jul-09 03:33N 45°04' E 030°39'1511.7
2014-Jul-09 02:15N 45°19' E 030°45'6410.5
2014-Jul-08 20:11N 46°22' E 030°55'8 9.9
2014-Jul-08 19:20N 46°31' E 030°55'5 6.9
2014-Jul-08 18:33N 46°35' E 031°01'2 0.1
2014-Jul-07 04:16N 46°37' E 031°02'0 0.0
2014-Jul-06 04:31N 46°37' E 031°02'0 0.0
2014-Jul-06 03:28N 46°37' E 031°02'0 0.0
2014-Jul-05 02:31N 46°37' E 031°02'  
Track history (hours):
 
Tides and Currents Weather Stations Pressure Air Temp Water Temp Dewpoint Dewpoint Depression Visibility Wind Speed Wind Dir Waves Ship Positions

Raiatea

Last reported at 2014-Jul-14 19:33 UTC. Time now 2014-Jul-26 05:08 UTC.
Position N 31°28' E 032°20'.
Warning: this ship's position is 11 days out of date.

Length 292 m; draft 16.7 m.

Type: Ship. MMSI: 538004070.

Date/timePositionNaut miles runAvg speedWind from/ knotsBaromVisibWave heightAir tempDewpointWater temp
2014-Jul-14 19:33N 31°28' E 032°20'103 3.4
2014-Jul-13 13:24N 32°46' E 031°00'34611.9
2014-Jul-12 08:23N 36°58' E 026°12'1012.1
2014-Jul-12 07:34N 37°07' E 026°06'1211.5
2014-Jul-12 06:33N 37°18' E 026°01'1211.6
2014-Jul-12 05:33N 37°28' E 025°55'1111.4
2014-Jul-12 04:33N 37°39' E 025°50'1211.7
2014-Jul-12 03:33N 37°50' E 025°44'1211.9
2014-Jul-12 02:33N 38°01' E 025°38'1212.0
2014-Jul-12 01:31N 38°12' E 025°32'1111.5
2014-Jul-12 00:33N 38°22' E 025°27'7910.9
2014-Jul-11 17:21N 39°39' E 025°47'911.2
2014-Jul-11 16:31N 39°48' E 025°51'1111.4
2014-Jul-11 15:33N 39°58' E 025°56'1110.8
2014-Jul-11 14:33N 40°02' E 026°10'38 2.3
2014-Jul-10 22:05N 40°28' E 026°46'0 0.0
2014-Jul-10 21:05N 40°28' E 026°46'0 0.0
2014-Jul-10 20:29N 40°28' E 026°46'0 0.1
2014-Jul-10 19:32N 40°27' E 026°46'0 0.1
2014-Jul-10 18:29N 40°28' E 026°46'0 0.1
2014-Jul-10 17:32N 40°28' E 026°46'3 3.0
2014-Jul-10 16:33N 40°28' E 026°50'302 8.6
2014-Jul-09 05:28N 44°43' E 030°30'1111.9
2014-Jul-09 04:33N 44°53' E 030°34'1211.8
2014-Jul-09 03:33N 45°04' E 030°39'1511.7
2014-Jul-09 02:15N 45°19' E 030°45'6410.5
2014-Jul-08 20:11N 46°22' E 030°55'8 9.9
2014-Jul-08 19:20N 46°31' E 030°55'5 6.9
2014-Jul-08 18:33N 46°35' E 031°01'2 0.1
2014-Jul-07 04:16N 46°37' E 031°02'0 0.0
2014-Jul-06 04:31N 46°37' E 031°02'0 0.0
2014-Jul-06 03:28N 46°37' E 031°02'0 0.0
2014-Jul-05 02:31N 46°37' E 031°02'  

Dump ship's entire track history